Weather at Brattforshede Airport

Public forecast

Using degrees Celsius for public forecast. Weather courtesy of forecast.io.

Closest aviation weather report (METAR) to Brattforshede Airport

Report is more than 6 hours old.

Closest report is Karlstad Airport, 20.1 nm (37.2 km) WSW.

2022/11/14 15:20 (retrieved 2 years ago)

ESOK 141520Z 05003KT 5000 +DZ SCT002 BKN008 08/// Q1022

Closest aviation forecast (TAF) to Brattforshede Airport

Forecast is more than 12 hours old.

Closest forecast is Oslo Airport, Gardermoen, 91.7 nm (169.8 km) WNW.

2023/02/22 18:36 (retrieved 1 year ago)

TAF ENGM 221700Z 2218/2318 17010KT 9000 -SN SCT012 BKN025 BECMG 2218/2220 4000 -SN SCT004 BKN012 TEMPO 2220/2305 1200 SN BR VV004 BECMG 2307/2309 01012KT 9999 NSW SCT030